Time;durP1;ratioP1;P1;durP2;ratioP2;P2;SDS_P1;SDS_P2;PMS_P1;PMS_P2;Temp;Humidity;BMP_temperature;BMP_pressure;BME280_temperature;BME280_humidity;BME280_pressure;Samples;Min_cycle;Max_cycle;Signal;HPM_P1;HPM_P2
2022/03/03 00:02:05;;;;;;;12.85;6.70;;;;;;;;;;5052023;28;20383;-66
2022/03/03 00:04:31;;;;;;;13.55;7.53;;;;;;;;;;5051981;28;20048;-65
2022/03/03 00:06:57;;;;;;;14.45;7.20;;;;;;;;;;5051831;28;20494;-66
2022/03/03 00:09:23;;;;;;;13.18;7.63;;;;;;;;;;5051919;28;20052;-67
2022/03/03 00:11:49;;;;;;;14.18;6.60;;;;;;;;;;5051693;28;20024;-65
2022/03/03 00:14:15;;;;;;;14.20;8.25;;;;;;;;;;5048786;28;20025;-64
2022/03/03 00:16:41;;;;;;;12.98;7.32;;;;;;;;;;5052018;28;20021;-64
2022/03/03 00:19:07;;;;;;;13.82;7.43;;;;;;;;;;5052114;28;20044;-64
2022/03/03 00:21:34;;;;;;;13.77;8.20;;;;;;;;;;5051306;28;20513;-65
2022/03/03 00:24:00;;;;;;;15.63;8.02;;;;;;;;;;5051560;28;20686;-64
2022/03/03 00:26:26;;;;;;;13.35;7.78;;;;;;;;;;5050509;28;20027;-65
2022/03/03 00:28:52;;;;;;;13.73;6.80;;;;;;;;;;5050345;28;20061;-65
2022/03/03 00:31:18;;;;;;;12.23;6.90;;;;;;;;;;5051738;28;20025;-64
2022/03/03 00:33:45;;;;;;;11.98;6.95;;;;;;;;;;5051425;28;20057;-64
2022/03/03 00:36:12;;;;;;;13.65;7.47;;;;;;;;;;5050536;28;20028;-68
2022/03/03 00:38:38;;;;;;;14.48;7.60;;;;;;;;;;5051607;28;20025;-64
2022/03/03 00:41:04;;;;;;;15.95;7.30;;;;;;;;;;5051317;28;20066;-64
2022/03/03 00:43:30;;;;;;;11.77;6.70;;;;;;;;;;5051333;28;20032;-64
2022/03/03 00:45:56;;;;;;;13.30;7.13;;;;;;;;;;5050934;28;20033;-64
2022/03/03 00:48:22;;;;;;;13.57;7.28;;;;;;;;;;5044805;28;20025;-64
2022/03/03 00:50:48;;;;;;;13.65;7.82;;;;;;;;;;5031589;28;20057;-65
2022/03/03 00:53:14;;;;;;;14.73;7.97;;;;;;;;;;5031399;28;20026;-67
2022/03/03 00:55:41;;;;;;;14.27;7.65;;;;;;;;;;5031333;28;20056;-64
2022/03/03 00:58:07;;;;;;;15.10;8.38;;;;;;;;;;5062063;28;20021;-66
2022/03/03 01:00:33;;;;;;;14.02;7.05;;;;;;;;;;5051488;28;20023;-63
2022/03/03 01:02:59;;;;;;;14.77;8.50;;;;;;;;;;5051031;28;20029;-64
2022/03/03 01:05:25;;;;;;;12.23;7.13;;;;;;;;;;5051296;28;20059;-65
2022/03/03 01:07:51;;;;;;;13.30;8.05;;;;;;;;;;5051208;28;20009;-67
2022/03/03 01:10:17;;;;;;;14.35;7.32;;;;;;;;;;5051211;28;20060;-64
2022/03/03 01:12:43;;;;;;;13.05;7.15;;;;;;;;;;5049958;28;20023;-66
2022/03/03 01:15:10;;;;;;;12.68;7.80;;;;;;;;;;5051237;28;20036;-64
2022/03/03 01:17:36;;;;;;;12.55;7.15;;;;;;;;;;5051258;28;20021;-65
2022/03/03 01:20:03;;;;;;;14.82;7.45;;;;;;;;;;5049725;28;20086;-64
2022/03/03 01:22:29;;;;;;;12.10;7.25;;;;;;;;;;5051192;28;20060;-64
2022/03/03 01:24:56;;;;;;;15.13;7.40;;;;;;;;;;5051076;28;20484;-65
2022/03/03 01:27:22;;;;;;;12.60;7.15;;;;;;;;;;5051194;28;20048;-64
2022/03/03 01:29:48;;;;;;;14.60;7.97;;;;;;;;;;5051035;28;20028;-64
2022/03/03 01:32:14;;;;;;;14.35;8.20;;;;;;;;;;5050747;28;20033;-65
2022/03/03 01:34:40;;;;;;;11.77;7.53;;;;;;;;;;5050603;28;20045;-64
2022/03/03 01:37:06;;;;;;;15.38;8.10;;;;;;;;;;5050783;28;20167;-66
2022/03/03 01:39:32;;;;;;;14.68;7.70;;;;;;;;;;5050625;28;20032;-64
2022/03/03 01:41:58;;;;;;;14.55;8.30;;;;;;;;;;5043325;28;20545;-64
2022/03/03 01:44:24;;;;;;;14.02;8.00;;;;;;;;;;5050797;28;20055;-64
2022/03/03 01:46:51;;;;;;;13.90;7.53;;;;;;;;;;5050569;28;20095;-65
2022/03/03 01:49:18;;;;;;;13.10;8.07;;;;;;;;;;5036717;28;20036;-64
2022/03/03 01:51:44;;;;;;;14.48;8.23;;;;;;;;;;5046171;28;20040;-65
2022/03/03 01:54:10;;;;;;;13.32;8.05;;;;;;;;;;5030980;28;20061;-64
2022/03/03 01:56:36;;;;;;;12.75;6.93;;;;;;;;;;5034654;28;20029;-63
2022/03/03 01:59:03;;;;;;;13.50;6.53;;;;;;;;;;5054342;28;20021;-64
2022/03/03 02:01:31;;;;;;;12.02;6.88;;;;;;;;;;5054074;28;20375;-64
2022/03/03 02:03:57;;;;;;;10.45;6.82;;;;;;;;;;5054064;28;20037;-64
2022/03/03 02:06:24;;;;;;;12.93;7.18;;;;;;;;;;5054236;28;20021;-64
2022/03/03 02:08:50;;;;;;;14.32;7.45;;;;;;;;;;5053609;28;20021;-64
2022/03/03 02:11:16;;;;;;;12.50;6.78;;;;;;;;;;5053697;28;20028;-67
2022/03/03 02:13:42;;;;;;;12.00;7.32;;;;;;;;;;5052265;28;20088;-66
2022/03/03 02:16:08;;;;;;;14.05;7.43;;;;;;;;;;5052629;28;20024;-64
2022/03/03 02:18:41;;;;;;;12.25;7.55;;;;;;;;;;5052427;28;20075;-64
2022/03/03 02:21:07;;;;;;;;;;;;;;;;;;5054360;28;20039;-65
2022/03/03 02:23:33;;;;;;;13.68;7.53;;;;;;;;;;5053949;28;19912;-64
2022/03/03 02:26:00;;;;;;;10.88;6.82;;;;;;;;;;5053878;28;20029;-64
2022/03/03 02:28:26;;;;;;;11.43;6.55;;;;;;;;;;5053976;28;20533;-67
2022/03/03 02:30:52;;;;;;;13.93;7.22;;;;;;;;;;5052290;28;20028;-64
2022/03/03 02:33:18;;;;;;;12.80;7.82;;;;;;;;;;5052322;28;20048;-65
2022/03/03 02:35:44;;;;;;;12.60;7.03;;;;;;;;;;5054162;28;20025;-64
2022/03/03 02:38:11;;;;;;;14.65;7.82;;;;;;;;;;5053218;28;20061;-64
2022/03/03 02:40:37;;;;;;;12.35;7.32;;;;;;;;;;5053328;28;20036;-64
2022/03/03 02:43:03;;;;;;;11.98;7.03;;;;;;;;;;5054088;28;20029;-65
2022/03/03 02:45:29;;;;;;;14.90;7.57;;;;;;;;;;5054602;28;20495;-64
2022/03/03 02:47:55;;;;;;;12.50;7.13;;;;;;;;;;5050422;28;20032;-67
2022/03/03 02:50:25;;;;;;;14.48;7.68;;;;;;;;;;5049831;28;20492;-64
2022/03/03 02:52:51;;;;;;;12.98;6.75;;;;;;;;;;5034281;28;20022;-64
2022/03/03 02:55:18;;;;;;;12.65;7.70;;;;;;;;;;5034394;28;20026;-64
2022/03/03 02:57:56;;;;;;;11.35;6.75;;;;;;;;;;5046367;28;20021;-66
2022/03/03 03:00:26;;;;;;;11.82;6.97;;;;;;;;;;5054116;28;20403;-68
2022/03/03 03:02:53;;;;;;;13.68;7.50;;;;;;;;;;5053924;28;20025;-65
2022/03/03 03:05:19;;;;;;;12.00;7.22;;;;;;;;;;5053883;28;20021;-68
2022/03/03 03:07:45;;;;;;;11.57;6.82;;;;;;;;;;5053597;28;20112;-68
2022/03/03 03:10:11;;;;;;;13.18;6.95;;;;;;;;;;5053839;28;20021;-69
2022/03/03 03:12:37;;;;;;;13.35;6.97;;;;;;;;;;5053924;28;20052;-67
2022/03/03 03:15:04;;;;;;;12.02;7.00;;;;;;;;;;5053598;28;20056;-66
2022/03/03 03:17:30;;;;;;;13.65;6.65;;;;;;;;;;5053710;28;20376;-67
2022/03/03 03:19:56;;;;;;;10.20;6.15;;;;;;;;;;5053758;28;20167;-68
2022/03/03 03:22:22;;;;;;;12.73;6.88;;;;;;;;;;5053802;28;20021;-68
2022/03/03 03:24:48;;;;;;;12.85;7.00;;;;;;;;;;5052288;28;20037;-67
2022/03/03 03:27:14;;;;;;;13.43;7.63;;;;;;;;;;5053712;28;20096;-68
2022/03/03 03:29:40;;;;;;;10.77;6.72;;;;;;;;;;5053582;28;20029;-67
2022/03/03 03:32:07;;;;;;;13.65;7.53;;;;;;;;;;5053592;28;20036;-65
2022/03/03 03:34:33;;;;;;;12.52;6.97;;;;;;;;;;5053449;28;20060;-65
2022/03/03 03:36:59;;;;;;;12.18;6.65;;;;;;;;;;5052269;28;20031;-65
2022/03/03 03:39:25;;;;;;;9.90;6.03;;;;;;;;;;5053408;28;20411;-68
2022/03/03 03:41:51;;;;;;;10.88;6.85;;;;;;;;;;5053187;28;20029;-66
2022/03/03 03:44:17;;;;;;;12.68;7.43;;;;;;;;;;5053187;28;20033;-65
2022/03/03 03:46:43;;;;;;;11.95;7.07;;;;;;;;;;5053433;28;20028;-65
2022/03/03 03:49:09;;;;;;;14.10;7.60;;;;;;;;;;5040254;28;20034;-64
2022/03/03 03:51:35;;;;;;;14.15;7.70;;;;;;;;;;5033283;28;20025;-67
2022/03/03 03:54:01;;;;;;;12.77;7.13;;;;;;;;;;5033107;28;20025;-65
2022/03/03 03:56:27;;;;;;;12.55;6.47;;;;;;;;;;5050496;28;20082;-64
2022/03/03 03:58:53;;;;;;;12.27;6.72;;;;;;;;;;5053250;28;20032;-64
2022/03/03 04:01:19;;;;;;;13.15;7.20;;;;;;;;;;5053003;28;20017;-66
2022/03/03 04:03:46;;;;;;;12.50;7.00;;;;;;;;;;5052978;28;20087;-65
2022/03/03 04:06:12;;;;;;;12.55;6.75;;;;;;;;;;5053044;28;20052;-65
2022/03/03 04:08:38;;;;;;;13.27;7.85;;;;;;;;;;5052874;28;20035;-66
2022/03/03 04:11:04;;;;;;;12.68;7.38;;;;;;;;;;5052820;28;20468;-67
2022/03/03 04:13:30;;;;;;;13.10;7.05;;;;;;;;;;5052956;28;20029;-65
2022/03/03 04:15:56;;;;;;;14.45;7.43;;;;;;;;;;5052780;28;20025;-65
2022/03/03 04:18:22;;;;;;;14.32;8.10;;;;;;;;;;5052840;28;20013;-66
2022/03/03 04:20:48;;;;;;;13.48;8.10;;;;;;;;;;5050961;28;20091;-67
2022/03/03 04:23:19;;;;;;;11.98;7.63;;;;;;;;;;5051252;28;20033;-66
2022/03/03 04:25:45;;;;;;;13.35;7.50;;;;;;;;;;5052685;28;20518;-66
2022/03/03 04:28:11;;;;;;;13.73;7.65;;;;;;;;;;5052774;28;20021;-65
2022/03/03 04:30:37;;;;;;;14.38;8.23;;;;;;;;;;5052601;28;20032;-68
2022/03/03 04:33:03;;;;;;;15.68;8.45;;;;;;;;;;5052070;28;20037;-66
2022/03/03 04:35:29;;;;;;;12.35;7.50;;;;;;;;;;5052406;28;20033;-65
2022/03/03 04:37:55;;;;;;;12.80;7.47;;;;;;;;;;5052419;28;20060;-66
2022/03/03 04:40:22;;;;;;;12.88;7.82;;;;;;;;;;5052754;28;20024;-66
2022/03/03 04:42:49;;;;;;;11.95;7.00;;;;;;;;;;5051167;28;20029;-65
2022/03/03 04:45:16;;;;;;;13.65;7.82;;;;;;;;;;5052580;28;20021;-67
2022/03/03 04:47:42;;;;;;;11.23;6.70;;;;;;;;;;5044671;28;20022;-64
2022/03/03 04:50:09;;;;;;;12.70;7.13;;;;;;;;;;5032519;28;20025;-65
2022/03/03 04:52:35;;;;;;;14.43;8.35;;;;;;;;;;5032519;28;20025;-65
2022/03/03 04:55:01;;;;;;;11.55;6.97;;;;;;;;;;5032454;28;20026;-65
2022/03/03 04:57:28;;;;;;;11.05;6.70;;;;;;;;;;5042607;28;20024;-65
2022/03/03 04:59:54;;;;;;;13.70;7.32;;;;;;;;;;5052284;28;20017;-67
2022/03/03 05:02:20;;;;;;;12.55;7.70;;;;;;;;;;5052278;28;20025;-65
2022/03/03 05:04:46;;;;;;;11.88;7.00;;;;;;;;;;5052209;28;20159;-68
2022/03/03 05:07:12;;;;;;;13.93;7.72;;;;;;;;;;5052305;28;20013;-68
2022/03/03 05:09:38;;;;;;;12.52;7.10;;;;;;;;;;5050938;28;20370;-68
2022/03/03 05:12:04;;;;;;;15.07;8.15;;;;;;;;;;5051949;28;20468;-69
2022/03/03 05:14:30;;;;;;;13.02;8.13;;;;;;;;;;5052355;28;20064;-68
2022/03/03 05:16:56;;;;;;;12.07;7.15;;;;;;;;;;5052248;28;20051;-65
2022/03/03 05:19:23;;;;;;;14.00;7.90;;;;;;;;;;5052041;28;20037;-68
2022/03/03 05:21:49;;;;;;;14.88;8.20;;;;;;;;;;5052113;28;20025;-67
2022/03/03 05:24:15;;;;;;;14.18;8.25;;;;;;;;;;5052270;28;20040;-68
2022/03/03 05:26:41;;;;;;;12.70;8.27;;;;;;;;;;5051003;28;20388;-68
2022/03/03 05:29:07;;;;;;;16.88;8.60;;;;;;;;;;5051941;28;20025;-65
2022/03/03 05:31:34;;;;;;;14.40;8.40;;;;;;;;;;5051152;28;20021;-65
2022/03/03 05:34:00;;;;;;;14.70;9.43;;;;;;;;;;5054221;28;20096;-64
2022/03/03 05:36:26;;;;;;;13.57;8.05;;;;;;;;;;5055860;28;20033;-65
2022/03/03 05:38:56;;;;;;;18.38;9.77;;;;;;;;;;5055786;28;20472;-64
2022/03/03 05:41:22;;;;;;;15.90;8.82;;;;;;;;;;5055451;28;20451;-64
2022/03/03 05:43:48;;;;;;;14.63;9.07;;;;;;;;;;5055410;28;20033;-65
2022/03/03 05:46:15;;;;;;;15.73;9.35;;;;;;;;;;5055577;28;20053;-64
2022/03/03 05:48:41;;;;;;;16.02;10.00;;;;;;;;;;5039687;28;20029;-65
2022/03/03 05:51:10;;;;;;;14.77;8.73;;;;;;;;;;5035518;28;20037;-65
2022/03/03 05:53:36;;;;;;;14.55;9.52;;;;;;;;;;5035512;28;20021;-68
2022/03/03 05:56:06;;;;;;;15.93;9.93;;;;;;;;;;5035408;28;20025;-64
2022/03/03 05:58:42;;;;;;;18.02;10.10;;;;;;;;;;5054604;28;20476;-66
2022/03/03 06:01:09;;;;;;;16.23;9.60;;;;;;;;;;5055188;28;20111;-65
2022/03/03 06:03:36;;;;;;;16.90;10.07;;;;;;;;;;5055212;28;20705;-64
2022/03/03 06:06:05;;;;;;;15.43;9.68;;;;;;;;;;5055338;28;20142;-66
2022/03/03 06:08:41;;;;;;;16.67;9.38;;;;;;;;;;5055370;28;20013;-64
2022/03/03 06:11:12;;;;;;;16.30;9.95;;;;;;;;;;5054817;28;20021;-64
2022/03/03 06:13:48;;;;;;;14.85;8.85;;;;;;;;;;5053873;28;20025;-67
2022/03/03 06:16:20;;;;;;;14.27;8.52;;;;;;;;;;5054959;28;20021;-64
2022/03/03 06:18:47;;;;;;;13.98;8.68;;;;;;;;;;5054982;28;20032;-64
2022/03/03 06:21:14;;;;;;;15.95;9.48;;;;;;;;;;5054958;28;20032;-64
2022/03/03 06:23:40;;;;;;;15.75;9.43;;;;;;;;;;5054841;28;20167;-65
2022/03/03 06:26:17;;;;;;;14.43;8.88;;;;;;;;;;5054636;28;20052;-66
2022/03/03 06:28:44;;;;;;;14.90;8.75;;;;;;;;;;5054809;28;20029;-65
2022/03/03 06:31:10;;;;;;;15.50;8.40;;;;;;;;;;5054503;28;20503;-66
2022/03/03 06:33:36;;;;;;;14.93;8.43;;;;;;;;;;5054375;28;20108;-65
2022/03/03 06:36:03;;;;;;;14.65;8.95;;;;;;;;;;5054671;28;20479;-65
2022/03/03 06:38:29;;;;;;;16.77;10.02;;;;;;;;;;5054670;28;20031;-65
2022/03/03 06:40:57;;;;;;;16.48;8.88;;;;;;;;;;5053205;28;20025;-66
2022/03/03 06:43:24;;;;;;;14.18;8.65;;;;;;;;;;5054218;28;20024;-65
2022/03/03 06:45:50;;;;;;;17.10;10.30;;;;;;;;;;5054379;28;20039;-65
2022/03/03 06:48:16;;;;;;;16.75;9.73;;;;;;;;;;5041900;28;20032;-65
2022/03/03 06:50:43;;;;;;;19.15;10.55;;;;;;;;;;5034290;28;20468;-65
2022/03/03 06:53:10;;;;;;;17.23;10.52;;;;;;;;;;5032855;28;20037;-65
2022/03/03 06:55:37;;;;;;;18.25;10.30;;;;;;;;;;5034240;28;20461;-66
2022/03/03 06:58:03;;;;;;;16.05;9.82;;;;;;;;;;5047550;28;20025;-65
2022/03/03 07:00:34;;;;;;;14.85;9.30;;;;;;;;;;5054146;28;20374;-65
2022/03/03 07:03:01;;;;;;;15.68;9.15;;;;;;;;;;5053743;28;20032;-65
2022/03/03 07:05:28;;;;;;;15.95;9.30;;;;;;;;;;5053960;28;20435;-66
2022/03/03 07:07:54;;;;;;;18.23;10.13;;;;;;;;;;5054011;28;20100;-65
2022/03/03 07:10:25;;;;;;;16.95;9.93;;;;;;;;;;5054120;28;20361;-66
2022/03/03 07:12:57;;;;;;;18.65;9.77;;;;;;;;;;5053860;28;20028;-67
2022/03/03 07:15:23;;;;;;;;;;;;;;;;;;5054390;28;20430;-66
2022/03/03 07:17:55;;;;;;;17.15;10.07;;;;;;;;;;5053814;28;20355;-67
2022/03/03 07:20:39;;;;;;;17.45;10.68;;;;;;;;;;5053789;28;20057;-67
2022/03/03 07:23:09;;;;;;;15.57;9.52;;;;;;;;;;5053521;28;20028;-69
2022/03/03 07:25:39;;;;;;;22.10;10.93;;;;;;;;;;5053777;28;20017;-65
2022/03/03 07:28:09;;;;;;;16.70;10.40;;;;;;;;;;5052315;28;20017;-67
2022/03/03 07:30:41;;;;;;;15.15;9.40;;;;;;;;;;5053336;28;20082;-67
2022/03/03 07:33:11;;;;;;;15.68;9.73;;;;;;;;;;5053174;28;20040;-67
2022/03/03 07:35:39;;;;;;;16.77;10.60;;;;;;;;;;5052173;28;20043;-70
2022/03/03 07:38:15;;;;;;;17.30;10.45;;;;;;;;;;5053288;28;20024;-66
2022/03/03 07:40:42;;;;;;;14.82;8.70;;;;;;;;;;5051987;28;20110;-68
2022/03/03 07:43:12;;;;;;;18.13;10.45;;;;;;;;;;5053132;28;20035;-66
2022/03/03 07:45:39;;;;;;;15.15;9.15;;;;;;;;;;5053409;28;20028;-63
2022/03/03 07:48:05;;;;;;;17.10;9.38;;;;;;;;;;5042463;28;20029;-66
2022/03/03 07:50:31;;;;;;;18.70;9.63;;;;;;;;;;5033282;28;20028;-66
2022/03/03 07:52:57;;;;;;;14.35;9.73;;;;;;;;;;5033197;28;20017;-68
2022/03/03 07:55:24;;;;;;;16.15;9.95;;;;;;;;;;5057525;28;20475;-66
2022/03/03 07:57:52;;;;;;;18.52;10.73;;;;;;;;;;5051712;28;20051;-64
2022/03/03 08:00:19;;;;;;;17.58;10.55;;;;;;;;;;5053278;28;20029;-64
2022/03/03 08:02:46;;;;;;;22.38;10.07;;;;;;;;;;5053189;28;20025;-65
2022/03/03 08:05:12;;;;;;;16.55;10.32;;;;;;;;;;5053268;28;20460;-65
2022/03/03 08:07:45;;;;;;;18.08;10.43;;;;;;;;;;5053105;28;20108;-66
2022/03/03 08:10:13;;;;;;;16.20;9.30;;;;;;;;;;5053016;28;20028;-66
2022/03/03 08:12:39;;;;;;;17.00;10.13;;;;;;;;;;5051357;28;20369;-69
2022/03/03 08:15:06;;;;;;;17.15;9.63;;;;;;;;;;5052342;28;20376;-65
2022/03/03 08:17:35;;;;;;;14.85;8.88;;;;;;;;;;5053149;28;20021;-66
2022/03/03 08:20:03;;;;;;;15.95;9.90;;;;;;;;;;5052999;28;20502;-66
2022/03/03 08:22:29;;;;;;;16.30;8.85;;;;;;;;;;5052942;28;20033;-66
2022/03/03 08:24:56;;;;;;;19.65;10.15;;;;;;;;;;5047114;28;20040;-65
2022/03/03 08:27:24;;;;;;;15.85;9.77;;;;;;;;;;5032911;28;20022;-65
2022/03/03 08:29:51;;;;;;;18.23;10.02;;;;;;;;;;5032999;28;20025;-65
2022/03/03 08:32:17;;;;;;;16.08;8.70;;;;;;;;;;5049497;28;20108;-66
2022/03/03 08:35:03;;;;;;;17.45;9.55;;;;;;;;;;5052599;28;20045;-65
2022/03/03 08:37:34;;;;;;;15.93;8.57;;;;;;;;;;5052818;28;20163;-66
2022/03/03 08:40:01;;;;;;;17.45;8.75;;;;;;;;;;5051467;28;20040;-65
2022/03/03 08:42:31;;;;;;;15.38;8.20;;;;;;;;;;5047089;28;20035;-66
2022/03/03 08:45:02;;;;;;;11.60;8.00;;;;;;;;;;5032718;28;20049;-65
2022/03/03 08:47:29;;;;;;;12.68;7.47;;;;;;;;;;5032582;28;20448;-67
2022/03/03 08:49:57;;;;;;;17.40;8.18;;;;;;;;;;5032823;28;20026;-65
2022/03/03 08:52:24;;;;;;;13.95;7.45;;;;;;;;;;5048015;28;20362;-67
2022/03/03 08:54:50;;;;;;;16.88;9.02;;;;;;;;;;5048034;28;20408;-67
2022/03/03 08:57:16;;;;;;;14.18;8.20;;;;;;;;;;5040932;28;20021;-66
2022/03/03 08:59:42;;;;;;;13.00;7.95;;;;;;;;;;5035769;28;20100;-65
2022/03/03 09:02:09;;;;;;;11.95;7.40;;;;;;;;;;5064685;28;20025;-67
2022/03/03 09:04:35;;;;;;;13.25;7.35;;;;;;;;;;5052346;28;20535;-65
2022/03/03 09:07:01;;;;;;;14.25;8.55;;;;;;;;;;5055566;28;20063;-66
2022/03/03 09:09:27;;;;;;;12.73;7.35;;;;;;;;;;5056629;28;20028;-66
2022/03/03 09:11:53;;;;;;;14.88;7.78;;;;;;;;;;5056712;28;20025;-65
2022/03/03 09:14:19;;;;;;;12.55;7.45;;;;;;;;;;5056392;28;20029;-65
2022/03/03 09:16:45;;;;;;;12.05;7.65;;;;;;;;;;5052455;28;20049;-66
2022/03/03 09:19:12;;;;;;;12.95;7.28;;;;;;;;;;5071560;28;20025;-66
2022/03/03 09:21:38;;;;;;;12.15;7.53;;;;;;;;;;5056030;28;20155;-66
2022/03/03 09:24:04;;;;;;;15.98;7.50;;;;;;;;;;5055935;28;20037;-65
2022/03/03 09:26:30;;;;;;;12.15;6.47;;;;;;;;;;5071561;28;20357;-66
2022/03/03 09:28:56;;;;;;;11.00;6.90;;;;;;;;;;5056088;28;20048;-65
2022/03/03 09:31:22;;;;;;;12.25;6.72;;;;;;;;;;5056019;28;20482;-65
2022/03/03 09:33:50;;;;;;;11.77;6.15;;;;;;;;;;5052972;28;20053;-65
2022/03/03 09:36:18;;;;;;;11.30;6.45;;;;;;;;;;5036784;28;20108;-65
2022/03/03 09:38:44;;;;;;;14.77;7.00;;;;;;;;;;5036117;28;20428;-64
2022/03/03 09:41:10;;;;;;;11.75;6.68;;;;;;;;;;5036063;28;20022;-64
2022/03/03 09:43:36;;;;;;;11.70;6.63;;;;;;;;;;5036015;28;20147;-65
2022/03/03 09:46:02;;;;;;;13.50;6.13;;;;;;;;;;5053143;28;20071;-65
2022/03/03 09:48:28;;;;;;;17.65;6.63;;;;;;;;;;5054222;28;20017;-65
2022/03/03 09:50:54;;;;;;;16.08;7.60;;;;;;;;;;5051978;28;23529;-64
2022/03/03 09:53:20;;;;;;;12.27;6.57;;;;;;;;;;5054301;28;20091;-67
2022/03/03 09:55:49;;;;;;;63.75;10.18;;;;;;;;;;5054728;28;20078;-66
2022/03/03 09:58:15;;;;;;;16.83;6.93;;;;;;;;;;5055597;28;20017;-66
2022/03/03 10:00:42;;;;;;;15.05;6.07;;;;;;;;;;5055515;28;20108;-64
2022/03/03 10:03:15;;;;;;;17.42;6.18;;;;;;;;;;5055183;28;20029;-64
2022/03/03 10:05:42;;;;;;;15.55;7.13;;;;;;;;;;5055493;28;20043;-66
2022/03/03 10:08:10;;;;;;;9.10;5.22;;;;;;;;;;5055417;28;20013;-64
2022/03/03 10:10:38;;;;;;;12.65;6.40;;;;;;;;;;5055461;28;20139;-67
2022/03/03 10:13:04;;;;;;;10.48;6.30;;;;;;;;;;5055123;28;20064;-65
2022/03/03 10:15:31;;;;;;;10.00;5.30;;;;;;;;;;5055392;28;20032;-64
2022/03/03 10:18:02;;;;;;;12.90;6.40;;;;;;;;;;5054269;28;20032;-64
2022/03/03 10:20:30;;;;;;;12.60;6.13;;;;;;;;;;5055088;28;20028;-65
2022/03/03 10:22:59;;;;;;;10.75;5.50;;;;;;;;;;5055197;28;20017;-66
2022/03/03 10:25:32;;;;;;;12.73;5.22;;;;;;;;;;5055215;28;20116;-67
2022/03/03 10:28:18;;;;;;;12.40;7.00;;;;;;;;;;5055344;28;20025;-66
2022/03/03 10:30:48;;;;;;;14.20;6.22;;;;;;;;;;5043028;28;20051;-65
2022/03/03 10:33:14;;;;;;;15.30;6.15;;;;;;;;;;5038552;28;20059;-65
2022/03/03 10:35:41;;;;;;;11.48;5.50;;;;;;;;;;5052229;28;20087;-67
2022/03/03 10:38:07;;;;;;;10.68;6.10;;;;;;;;;;5053516;28;20025;-66
2022/03/03 10:40:38;;;;;;;11.85;5.65;;;;;;;;;;5053288;28;20033;-65
2022/03/03 10:43:04;;;;;;;16.55;6.65;;;;;;;;;;5053901;28;20108;-67
2022/03/03 10:45:32;;;;;;;14.60;6.60;;;;;;;;;;5054216;28;20080;-66
2022/03/03 10:48:06;;;;;;;11.20;6.00;;;;;;;;;;5046458;28;20534;-65
2022/03/03 10:50:45;;;;;;;10.95;6.88;;;;;;;;;;5034639;28;20032;-66
2022/03/03 10:53:11;;;;;;;23.05;6.35;;;;;;;;;;5034466;28;20116;-65
2022/03/03 10:55:37;;;;;;;10.40;6.35;;;;;;;;;;5050042;28;20041;-67
2022/03/03 10:58:03;;;;;;;12.07;5.95;;;;;;;;;;5049905;28;20021;-66
2022/03/03 11:00:31;;;;;;;12.05;6.05;;;;;;;;;;5049809;28;20021;-66
2022/03/03 11:02:58;;;;;;;10.20;5.80;;;;;;;;;;5033442;28;20453;-68
2022/03/03 11:05:26;;;;;;;11.30;5.95;;;;;;;;;;5034294;28;20472;-67
2022/03/03 11:07:58;;;;;;;11.80;6.30;;;;;;;;;;5034422;28;20025;-67
2022/03/03 11:10:25;;;;;;;10.93;5.40;;;;;;;;;;5034280;28;20028;-67
2022/03/03 11:12:51;;;;;;;8.95;5.20;;;;;;;;;;5034325;28;20017;-66
2022/03/03 11:15:21;;;;;;;9.40;5.05;;;;;;;;;;5034259;28;20018;-69
2022/03/03 11:17:48;;;;;;;10.52;5.35;;;;;;;;;;5034207;28;20021;-67
2022/03/03 11:20:16;;;;;;;9.90;5.80;;;;;;;;;;5049576;28;20112;-68
2022/03/03 11:22:43;;;;;;;11.30;4.97;;;;;;;;;;5034065;28;20061;-66
2022/03/03 11:25:10;;;;;;;12.27;5.30;;;;;;;;;;5033530;28;20037;-66
2022/03/03 11:27:37;;;;;;;10.32;6.35;;;;;;;;;;5033911;28;20017;-66
2022/03/03 11:30:16;;;;;;;11.32;5.53;;;;;;;;;;5049087;28;20384;-67
2022/03/03 11:32:42;;;;;;;15.18;6.47;;;;;;;;;;5049250;28;20025;-67
2022/03/03 11:35:10;;;;;;;11.60;5.07;;;;;;;;;;5033004;28;20053;-67
2022/03/03 11:37:40;;;;;;;10.80;4.50;;;;;;;;;;5042189;28;20025;-67
2022/03/03 11:40:06;;;;;;;11.05;5.10;;;;;;;;;;5052317;28;20472;-67
2022/03/03 11:42:37;;;;;;;12.10;5.20;;;;;;;;;;5053242;28;20028;-67
2022/03/03 11:45:09;;;;;;;11.15;4.65;;;;;;;;;;5053186;28;20032;-67
2022/03/03 11:47:39;;;;;;;9.17;4.67;;;;;;;;;;5053252;28;20471;-67
2022/03/03 11:50:19;;;;;;;8.73;4.70;;;;;;;;;;5053277;28;20029;-68
2022/03/03 11:52:45;;;;;;;11.30;5.35;;;;;;;;;;5053255;28;20025;-67
2022/03/03 11:55:30;;;;;;;9.32;4.70;;;;;;;;;;5051830;28;20022;-67
2022/03/03 11:58:06;;;;;;;8.18;4.78;;;;;;;;;;5053367;28;20021;-67
2022/03/03 12:00:33;;;;;;;9.38;4.25;;;;;;;;;;5042122;28;20025;-69
2022/03/03 12:02:59;;;;;;;10.00;5.05;;;;;;;;;;5050198;28;20057;-69
2022/03/03 12:05:28;;;;;;;10.02;4.75;;;;;;;;;;5049159;28;20025;-67
2022/03/03 12:07:57;;;;;;;10.40;3.78;;;;;;;;;;5033242;28;20021;-66
2022/03/03 12:10:24;;;;;;;10.40;4.60;;;;;;;;;;5033149;28;20025;-68
2022/03/03 12:12:50;;;;;;;8.40;4.28;;;;;;;;;;5033272;28;20018;-67
2022/03/03 12:15:16;;;;;;;9.55;4.68;;;;;;;;;;5048423;28;20029;-66
2022/03/03 12:17:59;;;;;;;7.85;4.45;;;;;;;;;;5037820;28;20043;-68
2022/03/03 12:20:29;;;;;;;9.73;5.00;;;;;;;;;;5053010;28;20021;-67
2022/03/03 12:23:08;;;;;;;7.07;4.25;;;;;;;;;;5053147;28;20071;-66
2022/03/03 12:25:58;;;;;;;9.98;4.80;;;;;;;;;;5052991;28;20037;-68
2022/03/03 12:28:35;;;;;;;8.73;4.72;;;;;;;;;;5068346;28;20104;-66
2022/03/03 12:31:01;;;;;;;7.72;4.10;;;;;;;;;;5052695;28;20029;-67
2022/03/03 12:33:28;;;;;;;8.48;4.25;;;;;;;;;;5052837;28;20068;-69
2022/03/03 12:36:00;;;;;;;7.88;3.50;;;;;;;;;;5052921;28;20049;-66
2022/03/03 12:38:27;;;;;;;8.55;4.50;;;;;;;;;;5068159;28;20025;-68
2022/03/03 12:40:54;;;;;;;8.93;4.07;;;;;;;;;;5067609;28;20025;-68
2022/03/03 12:43:20;;;;;;;7.70;4.45;;;;;;;;;;5052506;28;20052;-69
2022/03/03 12:45:48;;;;;;;8.20;4.00;;;;;;;;;;5052872;28;20027;-67
2022/03/03 12:48:14;;;;;;;8.63;4.50;;;;;;;;;;5052814;28;20043;-68
2022/03/03 12:50:40;;;;;;;8.90;4.97;;;;;;;;;;5052661;28;20032;-66
2022/03/03 12:53:06;;;;;;;7.13;4.28;;;;;;;;;;5052563;28;20407;-67
2022/03/03 12:55:34;;;;;;;8.32;4.55;;;;;;;;;;5036950;28;20376;-66
2022/03/03 12:58:00;;;;;;;10.13;4.55;;;;;;;;;;5063686;28;20170;-66
2022/03/03 13:00:27;;;;;;;9.68;5.20;;;;;;;;;;5051617;28;20101;-67
2022/03/03 13:02:54;;;;;;;8.60;4.47;;;;;;;;;;5051636;28;20061;-67
2022/03/03 13:05:34;;;;;;;8.10;4.60;;;;;;;;;;5052528;28;20029;-66
2022/03/03 13:08:01;;;;;;;9.40;4.90;;;;;;;;;;5051150;28;20079;-66
2022/03/03 13:10:27;;;;;;;9.23;4.97;;;;;;;;;;5051305;28;20075;-67
2022/03/03 13:12:55;;;;;;;9.45;5.18;;;;;;;;;;5052627;28;20419;-66
2022/03/03 13:15:27;;;;;;;8.77;4.40;;;;;;;;;;5051049;28;20025;-66
2022/03/03 13:18:11;;;;;;;8.63;3.90;;;;;;;;;;5052582;28;20071;-66
2022/03/03 13:20:41;;;;;;;10.48;4.03;;;;;;;;;;5052259;28;20043;-66
2022/03/03 13:23:11;;;;;;;10.95;4.03;;;;;;;;;;5051106;28;20017;-67
2022/03/03 13:25:38;;;;;;;10.40;4.35;;;;;;;;;;5052428;28;20055;-66
2022/03/03 13:28:05;;;;;;;7.72;4.10;;;;;;;;;;5052407;28;20115;-66
2022/03/03 13:30:32;;;;;;;8.15;4.03;;;;;;;;;;5052425;28;20495;-67
2022/03/03 13:32:58;;;;;;;8.05;4.40;;;;;;;;;;5052310;28;20021;-66
2022/03/03 13:35:26;;;;;;;7.68;4.30;;;;;;;;;;5049564;28;20048;-66
2022/03/03 13:37:52;;;;;;;9.57;4.45;;;;;;;;;;5040835;28;20025;-67
2022/03/03 13:40:22;;;;;;;10.50;4.00;;;;;;;;;;5052059;28;20555;-67
2022/03/03 13:42:53;;;;;;;9.02;4.47;;;;;;;;;;5037388;28;20067;-66
2022/03/03 13:45:27;;;;;;;6.68;3.95;;;;;;;;;;5031814;28;20511;-65
2022/03/03 13:48:06;;;;;;;16.80;5.78;;;;;;;;;;5032246;28;20021;-68
2022/03/03 13:50:34;;;;;;;10.88;4.53;;;;;;;;;;5032117;28;20026;-67
2022/03/03 13:53:18;;;;;;;14.20;5.25;;;;;;;;;;5033375;28;20049;-66
2022/03/03 13:55:47;;;;;;;9.27;4.78;;;;;;;;;;5035463;28;20025;-68
2022/03/03 13:58:21;;;;;;;14.65;5.00;;;;;;;;;;5035366;28;20104;-65
2022/03/03 14:00:47;;;;;;;10.32;4.50;;;;;;;;;;5034346;28;20040;-67
2022/03/03 14:03:15;;;;;;;10.70;4.60;;;;;;;;;;5034667;28;20064;-67
2022/03/03 14:05:44;;;;;;;8.25;4.65;;;;;;;;;;5035423;28;20029;-67
2022/03/03 14:08:18;;;;;;;12.55;4.90;;;;;;;;;;5035497;28;20021;-66
2022/03/03 14:10:47;;;;;;;11.75;5.00;;;;;;;;;;5035307;28;20104;-66
2022/03/03 14:13:14;;;;;;;14.10;4.85;;;;;;;;;;5050483;28;20065;-68
2022/03/03 14:15:40;;;;;;;12.48;4.70;;;;;;;;;;5035444;28;20021;-66
2022/03/03 14:18:06;;;;;;;10.18;4.97;;;;;;;;;;5035416;28;20067;-67
2022/03/03 14:20:34;;;;;;;9.18;4.43;;;;;;;;;;5036214;28;20487;-68
2022/03/03 14:23:00;;;;;;;8.98;4.70;;;;;;;;;;5054761;28;20075;-67
2022/03/03 14:25:28;;;;;;;7.53;4.45;;;;;;;;;;5054983;28;20094;-67
2022/03/03 14:27:54;;;;;;;8.32;4.68;;;;;;;;;;5054257;28;20021;-67
2022/03/03 14:30:24;;;;;;;10.68;4.18;;;;;;;;;;5054918;28;20025;-67
2022/03/03 14:32:50;;;;;;;13.57;5.03;;;;;;;;;;5054938;28;20460;-64
2022/03/03 14:35:16;;;;;;;11.48;4.75;;;;;;;;;;5054679;28;20049;-66